createdAt,value
2018-04-30T00:00:15.669Z,3.20
2018-04-30T00:00:46.854Z,3.00
2018-04-30T00:01:18.059Z,2.75
2018-04-30T00:01:49.262Z,2.85
2018-04-30T00:02:20.469Z,2.83
2018-04-30T00:02:51.713Z,2.87
2018-04-30T00:03:22.921Z,3.10
2018-04-30T00:03:54.214Z,3.00
2018-04-30T00:04:25.417Z,3.30
2018-04-30T00:04:56.658Z,3.25
2018-04-30T00:05:27.868Z,3.58
2018-04-30T00:05:59.073Z,3.17
2018-04-30T00:06:30.290Z,3.03
2018-04-30T00:07:01.493Z,3.25
2018-04-30T00:07:32.699Z,2.80
2018-04-30T00:08:03.905Z,3.05
2018-04-30T00:08:35.234Z,3.12
2018-04-30T00:09:06.493Z,3.47
2018-04-30T00:09:37.707Z,3.25
2018-04-30T00:10:08.942Z,3.05
2018-04-30T00:10:40.142Z,3.15
2018-04-30T00:11:11.355Z,3.00
2018-04-30T00:11:42.565Z,3.20
2018-04-30T00:12:13.770Z,2.92
2018-04-30T00:12:44.981Z,2.67
2018-04-30T00:13:16.192Z,2.85
2018-04-30T00:13:47.419Z,3.17
2018-04-30T00:14:18.610Z,3.28
2018-04-30T00:14:49.968Z,2.62
2018-04-30T00:15:21.186Z,3.55
2018-04-30T00:15:52.390Z,3.08
2018-04-30T00:16:23.679Z,2.80
2018-04-30T00:16:54.885Z,3.20
2018-04-30T00:17:26.092Z,3.10
2018-04-30T00:17:57.298Z,3.22
2018-04-30T00:18:29.655Z,2.70
2018-04-30T00:19:00.864Z,3.17
2018-04-30T00:19:32.050Z,3.05
2018-04-30T00:20:03.302Z,2.70
2018-04-30T00:20:34.573Z,3.00
2018-04-30T00:21:05.820Z,2.90
2018-04-30T00:21:37.038Z,3.17
2018-04-30T00:22:08.265Z,2.97
2018-04-30T00:22:39.495Z,3.00
2018-04-30T00:23:10.702Z,3.28
2018-04-30T00:23:41.906Z,2.95
2018-04-30T00:24:13.116Z,2.80
2018-04-30T00:24:45.293Z,3.25
2018-04-30T00:25:16.498Z,2.90
2018-04-30T00:25:47.704Z,3.12
2018-04-30T00:26:18.981Z,3.08
2018-04-30T00:26:50.194Z,3.25
2018-04-30T00:27:21.405Z,3.35
2018-04-30T00:27:52.614Z,2.85
2018-04-30T00:28:23.827Z,2.90
2018-04-30T00:28:55.045Z,3.50
2018-04-30T00:29:26.240Z,3.40
2018-04-30T00:29:57.441Z,3.30
2018-04-30T00:30:28.698Z,3.22
2018-04-30T00:30:59.973Z,2.97
2018-04-30T00:31:31.184Z,3.10
2018-04-30T00:32:02.393Z,3.30
2018-04-30T00:32:33.610Z,3.15
2018-04-30T00:33:04.820Z,3.12
2018-04-30T00:33:36.084Z,3.28
2018-04-30T00:34:07.283Z,3.35
2018-04-30T00:34:38.489Z,3.50
2018-04-30T00:35:09.696Z,3.12
2018-04-30T00:35:40.967Z,3.22
2018-04-30T00:36:12.186Z,3.33
2018-04-30T00:36:43.384Z,3.40
2018-04-30T00:37:14.593Z,3.35
2018-04-30T00:37:45.791Z,3.58
2018-04-30T00:38:16.993Z,3.12
2018-04-30T00:38:48.189Z,3.42
2018-04-30T00:39:19.390Z,3.15
2018-04-30T00:39:50.597Z,3.47
2018-04-30T00:40:21.834Z,3.25
2018-04-30T00:40:53.065Z,3.37
2018-04-30T00:41:24.273Z,3.05
2018-04-30T00:41:55.482Z,3.30
2018-04-30T00:42:26.690Z,3.58
2018-04-30T00:42:57.925Z,3.53
2018-04-30T00:43:29.147Z,3.67
2018-04-30T00:44:00.357Z,3.25
2018-04-30T00:44:31.557Z,3.33
2018-04-30T00:45:02.773Z,3.45
2018-04-30T00:45:34.032Z,3.90
2018-04-30T00:46:05.223Z,3.65
2018-04-30T00:46:36.416Z,3.28
2018-04-30T00:47:07.618Z,3.90
2018-04-30T00:47:38.865Z,3.50
2018-04-30T00:48:10.065Z,3.80
2018-04-30T00:48:41.271Z,3.78
2018-04-30T00:49:12.485Z,3.60
2018-04-30T00:49:43.693Z,4.05
2018-04-30T00:50:14.888Z,3.85
2018-04-30T00:50:46.097Z,3.37
2018-04-30T00:51:17.302Z,3.60
2018-04-30T00:51:48.509Z,3.65
2018-04-30T00:52:19.722Z,3.55
2018-04-30T00:52:50.932Z,3.20
2018-04-30T00:53:22.145Z,3.80
2018-04-30T00:53:53.352Z,3.33
2018-04-30T00:54:24.552Z,3.37
2018-04-30T00:54:55.757Z,3.50
2018-04-30T00:55:26.978Z,3.30
2018-04-30T00:55:58.165Z,3.67
2018-04-30T00:56:29.402Z,3.65
2018-04-30T00:57:00.625Z,3.87
2018-04-30T00:57:31.838Z,3.30
2018-04-30T00:58:03.092Z,3.35
2018-04-30T00:58:34.302Z,3.20
2018-04-30T00:59:05.502Z,3.37
2018-04-30T00:59:36.720Z,3.80
2018-04-30T01:00:07.966Z,3.17
2018-04-30T01:00:39.221Z,3.70
2018-04-30T01:01:10.422Z,3.37
2018-04-30T01:01:41.649Z,3.58
2018-04-30T01:02:12.902Z,3.22
2018-04-30T01:02:44.112Z,3.25
2018-04-30T01:03:15.313Z,3.35
2018-04-30T01:03:46.530Z,3.12
2018-04-30T01:04:17.737Z,3.40
2018-04-30T01:04:49.051Z,3.30
2018-04-30T01:05:20.265Z,3.20
2018-04-30T01:05:51.477Z,3.95
2018-04-30T01:06:22.687Z,3.10
2018-04-30T01:06:53.893Z,3.33
2018-04-30T01:07:25.099Z,3.33
2018-04-30T01:07:56.333Z,3.55
2018-04-30T01:08:27.578Z,3.58
2018-04-30T01:08:58.830Z,3.85
2018-04-30T01:09:30.040Z,3.62
2018-04-30T01:10:01.262Z,3.58
2018-04-30T01:10:32.487Z,3.80
2018-04-30T01:11:03.702Z,3.78
2018-04-30T01:11:34.910Z,3.85
2018-04-30T01:12:06.118Z,3.58
2018-04-30T01:12:37.387Z,3.50
2018-04-30T01:13:08.581Z,3.50
2018-04-30T01:13:39.789Z,3.30
2018-04-30T01:14:11.008Z,3.70
2018-04-30T01:14:42.265Z,3.70
2018-04-30T01:15:13.445Z,3.40
2018-04-30T01:15:44.693Z,3.75
2018-04-30T01:16:15.892Z,3.33
2018-04-30T01:16:47.098Z,3.10
2018-04-30T01:17:18.310Z,3.60
2018-04-30T01:17:49.529Z,3.42
2018-04-30T01:18:20.732Z,3.40
2018-04-30T01:18:51.948Z,3.55
2018-04-30T01:19:23.157Z,4.10
2018-04-30T01:19:54.352Z,3.92
2018-04-30T01:20:25.579Z,3.60
2018-04-30T01:20:56.837Z,3.45
2018-04-30T01:21:28.368Z,3.50
2018-04-30T01:21:59.585Z,3.60
2018-04-30T01:22:30.796Z,3.45
2018-04-30T01:23:02.051Z,3.22
2018-04-30T01:23:33.258Z,3.40
2018-04-30T01:24:04.460Z,3.47
2018-04-30T01:24:35.665Z,3.50
2018-04-30T01:25:06.875Z,4.07
2018-04-30T01:25:38.144Z,3.90
2018-04-30T01:26:09.346Z,3.80
2018-04-30T01:26:40.598Z,3.80
2018-04-30T01:27:11.806Z,3.55
2018-04-30T01:27:43.038Z,3.55
2018-04-30T01:28:14.241Z,3.55
2018-04-30T01:28:45.445Z,3.50
2018-04-30T01:29:16.662Z,3.47
2018-04-30T01:29:47.862Z,3.47
2018-04-30T01:30:19.066Z,3.58
2018-04-30T01:30:50.273Z,3.20
2018-04-30T01:31:21.472Z,3.62
2018-04-30T01:31:52.747Z,3.78
2018-04-30T01:32:23.951Z,4.03
2018-04-30T01:32:55.153Z,3.65
2018-04-30T01:33:26.367Z,4.00
2018-04-30T01:33:57.562Z,3.70
2018-04-30T01:34:28.746Z,3.80
2018-04-30T01:34:59.962Z,3.33
2018-04-30T01:35:31.169Z,4.30
2018-04-30T01:36:02.374Z,3.53
2018-04-30T01:36:33.578Z,4.07
2018-04-30T01:37:04.804Z,4.20
2018-04-30T01:37:36.010Z,3.90
2018-04-30T01:38:07.254Z,3.42
2018-04-30T01:38:38.462Z,3.90
2018-04-30T01:39:09.674Z,4.05
2018-04-30T01:39:40.885Z,3.60
2018-04-30T01:40:12.101Z,3.75
2018-04-30T01:40:43.343Z,3.70
2018-04-30T01:41:14.587Z,3.58
2018-04-30T01:41:45.795Z,3.85
2018-04-30T01:42:17.005Z,3.65
2018-04-30T01:42:48.191Z,3.60
2018-04-30T01:43:19.405Z,3.78
2018-04-30T01:43:50.647Z,3.80
2018-04-30T01:44:21.849Z,4.03
2018-04-30T01:44:53.048Z,4.18
2018-04-30T01:45:24.245Z,3.80
2018-04-30T01:45:55.463Z,3.90
2018-04-30T01:46:26.671Z,3.97
2018-04-30T01:46:57.890Z,4.12
2018-04-30T01:47:29.145Z,4.12
2018-04-30T01:48:00.347Z,4.28
2018-04-30T01:48:31.551Z,3.75
2018-04-30T01:49:02.798Z,3.92
2018-04-30T01:49:34.007Z,4.15
2018-04-30T01:50:05.208Z,4.22
2018-04-30T01:50:36.424Z,3.92
2018-04-30T01:51:07.624Z,4.03
2018-04-30T01:51:38.837Z,3.95
2018-04-30T01:52:10.041Z,3.67
2018-04-30T01:53:18.443Z,3.85
2018-04-30T01:53:49.630Z,4.15
2018-04-30T01:54:20.835Z,4.20
2018-04-30T01:54:52.018Z,4.35
2018-04-30T01:55:23.216Z,3.72
2018-04-30T01:55:54.438Z,3.90
2018-04-30T01:56:25.649Z,3.97
2018-04-30T01:56:56.855Z,4.03
2018-04-30T01:57:28.042Z,4.78
2018-04-30T01:57:59.238Z,4.03
2018-04-30T01:58:30.482Z,3.40
2018-04-30T01:59:01.687Z,4.18
2018-04-30T01:59:32.933Z,3.78
2018-04-30T02:00:04.187Z,4.45
2018-04-30T02:00:35.436Z,3.90
2018-04-30T02:01:06.648Z,4.30
2018-04-30T02:01:37.834Z,4.22
2018-04-30T02:02:09.038Z,4.62
2018-04-30T02:02:40.245Z,3.87
2018-04-30T02:03:11.452Z,3.85
2018-04-30T02:03:42.699Z,3.92
2018-04-30T02:04:13.914Z,4.07
2018-04-30T02:04:45.134Z,4.07
2018-04-30T02:05:16.336Z,4.18
2018-04-30T02:05:47.554Z,4.43
2018-04-30T02:06:18.789Z,4.10
2018-04-30T02:06:49.996Z,4.37
2018-04-30T02:07:21.209Z,4.12
2018-04-30T02:07:52.412Z,4.05
2018-04-30T02:08:23.616Z,3.60
2018-04-30T02:08:54.821Z,4.05
2018-04-30T02:09:26.084Z,4.10
2018-04-30T02:09:57.281Z,4.47
2018-04-30T02:10:28.462Z,4.80
2018-04-30T02:10:59.668Z,4.40
2018-04-30T02:11:30.908Z,4.53
2018-04-30T02:12:02.115Z,4.47
2018-04-30T02:12:33.320Z,4.37
2018-04-30T02:13:04.529Z,4.47
2018-04-30T02:13:35.739Z,4.37
2018-04-30T02:14:06.922Z,4.30
2018-04-30T02:14:38.189Z,4.53
2018-04-30T02:15:09.397Z,4.60
2018-04-30T02:15:40.597Z,4.47
2018-04-30T02:16:11.798Z,4.60
2018-04-30T02:16:42.983Z,5.03
2018-04-30T02:17:14.180Z,5.03
2018-04-30T02:17:45.389Z,4.75
2018-04-30T02:18:16.602Z,4.82
2018-04-30T02:18:47.828Z,5.00
2018-04-30T02:19:19.035Z,4.85
2018-04-30T02:19:50.272Z,5.10
2018-04-30T02:20:21.472Z,5.22
2018-04-30T02:20:52.678Z,5.65
2018-04-30T02:21:23.910Z,5.57
2018-04-30T02:21:55.135Z,5.12
2018-04-30T02:22:26.404Z,4.95
2018-04-30T02:22:57.613Z,4.82
2018-04-30T02:23:28.830Z,4.70
2018-04-30T02:24:00.037Z,4.97
2018-04-30T02:24:31.240Z,4.80
2018-04-30T02:25:02.526Z,4.70
2018-04-30T02:25:33.747Z,5.22
2018-04-30T02:26:04.958Z,5.37
2018-04-30T02:26:36.226Z,5.12
2018-04-30T02:27:07.441Z,4.93
2018-04-30T02:27:38.656Z,5.43
2018-04-30T02:28:09.861Z,5.28
2018-04-30T02:28:41.066Z,5.07
2018-04-30T02:29:12.282Z,4.70
2018-04-30T02:29:43.509Z,5.22
2018-04-30T02:30:14.756Z,5.40
2018-04-30T02:30:45.967Z,5.07
2018-04-30T02:31:17.182Z,5.80
2018-04-30T02:31:48.388Z,5.37
2018-04-30T02:32:19.597Z,5.80
2018-04-30T02:32:50.858Z,5.40
2018-04-30T02:33:22.069Z,5.32
2018-04-30T02:33:53.269Z,5.60
2018-04-30T02:34:24.496Z,5.05
2018-04-30T02:34:55.713Z,5.55
2018-04-30T02:35:26.915Z,6.18
2018-04-30T02:35:58.120Z,5.37
2018-04-30T02:36:29.322Z,5.30
2018-04-30T02:37:00.535Z,5.97
2018-04-30T02:37:31.761Z,6.10
2018-04-30T02:38:03.058Z,6.15
2018-04-30T02:38:34.285Z,5.75
2018-04-30T02:39:05.501Z,5.60
2018-04-30T02:39:36.705Z,6.18
2018-04-30T02:40:07.913Z,6.07
2018-04-30T02:40:39.151Z,6.28
2018-04-30T02:41:10.392Z,7.90
2018-04-30T02:41:41.606Z,7.45
2018-04-30T02:42:12.810Z,7.45
2018-04-30T02:42:44.017Z,6.90
2018-04-30T02:43:15.277Z,7.60
2018-04-30T02:43:46.477Z,7.30
2018-04-30T02:44:17.668Z,7.18
2018-04-30T02:44:48.870Z,7.03
2018-04-30T02:45:20.078Z,6.40
2018-04-30T02:45:51.292Z,7.00
2018-04-30T02:46:22.511Z,7.07
2018-04-30T02:46:53.721Z,5.82
2018-04-30T02:47:24.939Z,6.62
2018-04-30T02:47:56.162Z,6.72
2018-04-30T02:48:27.429Z,6.90
2018-04-30T02:48:58.658Z,6.65
2018-04-30T02:49:29.868Z,6.45
2018-04-30T02:50:01.076Z,6.97
2018-04-30T02:50:32.292Z,6.70
2018-04-30T02:51:03.510Z,6.62
2018-04-30T02:51:34.713Z,6.30
2018-04-30T02:52:05.919Z,6.25
2018-04-30T02:52:37.125Z,6.40
2018-04-30T02:53:08.334Z,6.72
2018-04-30T02:53:39.628Z,6.62
2018-04-30T02:54:10.842Z,6.60
2018-04-30T02:54:42.055Z,6.32
2018-04-30T02:55:13.291Z,6.62
2018-04-30T02:55:44.494Z,6.35
2018-04-30T02:56:15.721Z,6.75
2018-04-30T02:56:46.932Z,6.10
2018-04-30T02:57:18.135Z,6.60
2018-04-30T02:57:49.346Z,6.18
2018-04-30T02:58:20.602Z,6.40
2018-04-30T02:58:51.845Z,6.45
2018-04-30T02:59:23.065Z,6.05
2018-04-30T02:59:54.294Z,5.85
2018-04-30T03:00:25.513Z,6.40
2018-04-30T03:00:56.713Z,6.30
2018-04-30T03:01:27.978Z,6.35
2018-04-30T03:01:59.181Z,6.28
2018-04-30T03:02:30.384Z,6.32
2018-04-30T03:03:01.590Z,6.57
2018-04-30T03:03:32.797Z,6.00
2018-04-30T03:04:04.009Z,6.10
2018-04-30T03:04:35.220Z,6.40
2018-04-30T03:05:06.450Z,6.40
2018-04-30T03:05:37.657Z,6.70
2018-04-30T03:06:08.866Z,6.35
2018-04-30T03:06:40.112Z,7.15
2018-04-30T03:07:11.324Z,6.47
2018-04-30T03:07:42.880Z,6.40
2018-04-30T03:08:14.102Z,6.05
2018-04-30T03:08:45.301Z,6.53
2018-04-30T03:09:16.499Z,7.07
2018-04-30T03:09:47.721Z,6.20
2018-04-30T03:10:18.985Z,6.55
2018-04-30T03:10:50.246Z,6.70
2018-04-30T03:11:21.456Z,6.50
2018-04-30T03:11:52.681Z,6.97
2018-04-30T03:12:23.881Z,6.72
2018-04-30T03:12:55.117Z,6.68
2018-04-30T03:13:26.312Z,6.70
2018-04-30T03:13:57.514Z,7.18
2018-04-30T03:14:28.716Z,6.00
2018-04-30T03:14:59.920Z,7.22
2018-04-30T03:15:31.145Z,6.95
2018-04-30T03:16:02.357Z,7.57
2018-04-30T03:16:33.557Z,7.07
2018-04-30T03:17:04.761Z,7.85
2018-04-30T03:17:35.965Z,7.80
2018-04-30T03:18:07.231Z,7.68
2018-04-30T03:18:38.447Z,8.20
2018-04-30T03:19:09.653Z,7.68
2018-04-30T03:19:40.917Z,7.65
2018-04-30T03:20:12.163Z,8.45
2018-04-30T03:20:43.376Z,7.85
2018-04-30T03:21:14.586Z,7.97
2018-04-30T03:21:45.812Z,8.02
2018-04-30T03:22:17.029Z,7.57
2018-04-30T03:22:48.246Z,7.50
2018-04-30T03:23:19.500Z,7.80
2018-04-30T03:23:50.722Z,7.68
2018-04-30T03:24:21.925Z,7.85
2018-04-30T03:24:53.178Z,7.82
2018-04-30T03:25:24.380Z,6.93
2018-04-30T03:25:55.622Z,7.50
2018-04-30T03:26:26.839Z,6.60
2018-04-30T03:26:58.058Z,6.65
2018-04-30T03:27:29.263Z,6.68
2018-04-30T03:28:00.475Z,6.87
2018-04-30T03:28:31.681Z,7.07
2018-04-30T03:29:02.949Z,7.05
2018-04-30T03:29:34.173Z,6.53
2018-04-30T03:30:05.414Z,6.70
2018-04-30T03:30:36.662Z,6.50
2018-04-30T03:31:07.873Z,6.70
2018-04-30T03:31:39.073Z,7.25
2018-04-30T03:32:10.275Z,6.70
2018-04-30T03:32:41.471Z,7.22
2018-04-30T03:33:12.677Z,6.60
2018-04-30T03:33:43.889Z,7.03
2018-04-30T03:34:15.129Z,7.25
2018-04-30T03:34:46.370Z,7.62
2018-04-30T03:35:17.585Z,7.57
2018-04-30T03:35:48.788Z,8.00
2018-04-30T03:36:19.993Z,8.10
2018-04-30T03:36:51.179Z,7.32
2018-04-30T03:37:22.373Z,7.20
2018-04-30T03:37:53.585Z,7.70
2018-04-30T03:38:24.784Z,7.55
2018-04-30T03:38:55.995Z,7.47
2018-04-30T03:39:27.211Z,8.18
2018-04-30T03:39:58.480Z,9.10
2018-04-30T03:40:29.690Z,9.45
2018-04-30T03:41:00.916Z,10.75
2018-04-30T03:41:32.128Z,9.80
2018-04-30T03:42:03.344Z,10.88
2018-04-30T03:42:34.553Z,10.77
2018-04-30T03:43:05.817Z,10.23
2018-04-30T03:43:37.073Z,11.25
2018-04-30T03:44:08.294Z,11.00
2018-04-30T03:44:39.505Z,10.85
2018-04-30T03:45:10.694Z,9.93
2018-04-30T03:45:41.897Z,11.48
2018-04-30T03:46:13.109Z,10.18
2018-04-30T03:46:44.688Z,8.68
2018-04-30T03:47:15.902Z,9.73
2018-04-30T03:47:47.104Z,9.32
2018-04-30T03:48:18.360Z,9.68
2018-04-30T03:48:49.576Z,9.18
2018-04-30T03:49:20.781Z,9.43
2018-04-30T03:49:51.990Z,9.18
2018-04-30T03:50:23.202Z,9.93
2018-04-30T03:50:54.415Z,9.15
2018-04-30T03:51:26.327Z,10.20
2018-04-30T03:51:57.541Z,9.55
2018-04-30T03:52:28.756Z,10.10
2018-04-30T03:53:00.012Z,10.23
2018-04-30T03:53:31.225Z,9.48
2018-04-30T03:54:02.428Z,9.80
2018-04-30T03:54:33.641Z,9.77
2018-04-30T03:55:04.842Z,9.93
2018-04-30T03:55:36.050Z,10.10
2018-04-30T03:56:07.279Z,10.07
2018-04-30T03:56:38.501Z,9.43
2018-04-30T03:57:09.728Z,10.00
2018-04-30T03:57:40.938Z,9.38
2018-04-30T03:58:12.194Z,9.80
2018-04-30T03:58:43.415Z,9.23
2018-04-30T03:59:14.625Z,10.73
2018-04-30T03:59:45.834Z,10.13
2018-04-30T04:00:17.036Z,10.30
2018-04-30T04:00:48.264Z,10.25
2018-04-30T04:01:19.496Z,11.30
2018-04-30T04:01:50.704Z,10.60
2018-04-30T04:02:21.928Z,10.68
2018-04-30T04:02:53.196Z,10.00
2018-04-30T04:03:24.414Z,10.65
2018-04-30T04:03:55.654Z,10.52
2018-04-30T04:04:26.862Z,10.50
2018-04-30T04:04:58.112Z,11.20
2018-04-30T04:05:29.321Z,11.00
2018-04-30T04:06:00.874Z,9.85
2018-04-30T04:06:32.145Z,10.32
2018-04-30T04:07:03.347Z,11.10
2018-04-30T04:07:34.553Z,11.85
2018-04-30T04:08:05.817Z,11.27
2018-04-30T04:08:37.032Z,10.70
2018-04-30T04:09:08.261Z,11.48
2018-04-30T04:09:39.514Z,11.20
2018-04-30T04:10:10.725Z,10.90
2018-04-30T04:10:41.937Z,10.60
2018-04-30T04:11:13.156Z,10.82
2018-04-30T04:11:44.382Z,10.98
2018-04-30T04:12:15.643Z,11.63
2018-04-30T04:12:46.955Z,10.82
2018-04-30T04:13:18.149Z,9.63
2018-04-30T04:13:49.364Z,9.70
2018-04-30T04:14:20.629Z,10.82
2018-04-30T04:14:51.832Z,10.80
2018-04-30T04:15:23.100Z,10.32
2018-04-30T04:15:54.360Z,10.68
2018-04-30T04:16:25.597Z,10.07
2018-04-30T04:16:56.815Z,9.85
2018-04-30T04:17:28.022Z,10.75
2018-04-30T04:17:59.229Z,9.85
2018-04-30T04:18:30.442Z,10.02
2018-04-30T04:19:01.653Z,10.35
2018-04-30T04:19:32.861Z,10.45
2018-04-30T04:20:04.073Z,10.00
2018-04-30T04:20:35.285Z,9.80
2018-04-30T04:21:06.552Z,10.25
2018-04-30T04:21:37.769Z,10.50
2018-04-30T04:22:08.976Z,9.75
2018-04-30T04:22:40.181Z,9.93
2018-04-30T04:23:11.396Z,10.00
2018-04-30T04:23:42.607Z,8.95
2018-04-30T04:24:13.835Z,9.02
2018-04-30T04:24:45.108Z,8.50
2018-04-30T04:25:16.325Z,8.95
2018-04-30T04:25:47.530Z,9.30
2018-04-30T04:26:18.784Z,9.20
2018-04-30T04:26:49.989Z,8.82
2018-04-30T04:27:21.193Z,9.20
2018-04-30T04:27:52.425Z,9.40
2018-04-30T04:28:23.637Z,8.80
2018-04-30T04:28:54.866Z,8.52
2018-04-30T04:29:26.073Z,8.15
2018-04-30T04:29:57.293Z,9.32
2018-04-30T04:30:29.109Z,8.80
2018-04-30T04:31:00.321Z,8.70
2018-04-30T04:31:31.653Z,8.50
2018-04-30T04:32:02.865Z,8.45
2018-04-30T04:32:34.072Z,8.65
2018-04-30T04:33:05.336Z,8.27
2018-04-30T04:33:36.549Z,7.93
2018-04-30T04:34:07.769Z,8.45
2018-04-30T04:34:38.987Z,8.43
2018-04-30T04:35:10.195Z,8.13
2018-04-30T04:35:41.422Z,7.93
2018-04-30T04:36:12.627Z,8.65
2018-04-30T04:36:43.837Z,7.95
2018-04-30T04:37:15.066Z,7.90
2018-04-30T04:37:46.276Z,8.57
2018-04-30T04:38:17.564Z,7.72
2018-04-30T04:38:48.782Z,7.93
2018-04-30T04:39:20.010Z,7.87
2018-04-30T04:39:51.251Z,7.35
2018-04-30T04:40:22.453Z,7.12
2018-04-30T04:40:53.693Z,7.72
2018-04-30T04:41:24.892Z,7.85
2018-04-30T04:41:56.091Z,7.68
2018-04-30T04:42:27.297Z,7.57
2018-04-30T04:42:58.523Z,6.80
2018-04-30T04:43:29.745Z,7.65
2018-04-30T04:44:00.957Z,7.35
2018-04-30T04:44:32.200Z,7.35
2018-04-30T04:45:03.410Z,7.10
2018-04-30T04:45:34.664Z,7.70
2018-04-30T04:46:05.887Z,7.15
2018-04-30T04:46:37.151Z,7.37
2018-04-30T04:47:08.410Z,7.43
2018-04-30T04:47:39.632Z,7.12
2018-04-30T04:48:10.851Z,7.10
2018-04-30T04:48:42.055Z,7.50
2018-04-30T04:49:13.262Z,6.97
2018-04-30T04:49:44.475Z,7.15
2018-04-30T04:50:15.659Z,7.40
2018-04-30T04:50:46.957Z,7.10
2018-04-30T04:51:18.169Z,7.30
2018-04-30T04:51:49.378Z,7.00
2018-04-30T04:52:20.597Z,7.00
2018-04-30T04:52:51.837Z,7.22
2018-04-30T04:53:23.056Z,6.82
2018-04-30T04:53:54.290Z,6.70
2018-04-30T04:54:25.554Z,6.03
2018-04-30T04:54:56.752Z,6.70
2018-04-30T04:55:27.953Z,6.22
2018-04-30T04:55:59.161Z,6.37
2018-04-30T04:56:30.381Z,6.82
2018-04-30T04:57:01.580Z,6.00
2018-04-30T04:57:32.780Z,6.32
2018-04-30T04:58:03.981Z,6.68
2018-04-30T04:58:35.189Z,6.68
2018-04-30T04:59:06.402Z,6.60
2018-04-30T04:59:37.667Z,6.85
2018-04-30T05:00:08.868Z,6.97
2018-04-30T05:00:40.074Z,6.97
2018-04-30T05:01:11.281Z,7.00
2018-04-30T05:01:42.532Z,7.07
2018-04-30T05:02:13.727Z,6.78
2018-04-30T05:02:44.928Z,6.78
2018-04-30T05:03:16.132Z,7.45
2018-04-30T05:03:47.335Z,7.03
2018-04-30T05:04:18.545Z,7.28
2018-04-30T05:04:49.749Z,6.65
2018-04-30T05:05:20.956Z,7.47
2018-04-30T05:05:52.161Z,7.55
2018-04-30T05:06:23.384Z,7.40
2018-04-30T05:06:54.642Z,7.80
2018-04-30T05:07:25.894Z,7.50
2018-04-30T05:07:57.128Z,7.37
2018-04-30T05:08:28.386Z,7.60
2018-04-30T05:08:59.593Z,7.32
2018-04-30T05:09:30.827Z,7.25
2018-04-30T05:10:02.054Z,7.35
2018-04-30T05:10:33.284Z,7.55
2018-04-30T05:11:04.493Z,7.32
2018-04-30T05:11:35.757Z,7.57
2018-04-30T05:12:06.957Z,7.05
2018-04-30T05:12:38.201Z,7.30
2018-04-30T05:13:09.422Z,6.97
2018-04-30T05:13:40.624Z,7.12
2018-04-30T05:14:11.848Z,7.35
2018-04-30T05:14:43.063Z,7.47
2018-04-30T05:15:14.278Z,7.70
2018-04-30T05:15:45.480Z,7.55
2018-04-30T05:16:16.781Z,7.32
2018-04-30T05:16:48.002Z,8.00
2018-04-30T05:17:19.266Z,7.62
2018-04-30T05:17:50.496Z,7.75
2018-04-30T05:18:21.765Z,7.72
2018-04-30T05:18:52.986Z,7.93
2018-04-30T05:19:24.188Z,7.70
2018-04-30T05:19:55.415Z,7.68
2018-04-30T05:20:26.637Z,8.02
2018-04-30T05:20:57.944Z,8.02
2018-04-30T05:21:29.169Z,8.38
2018-04-30T05:22:00.432Z,8.02
2018-04-30T05:22:31.667Z,8.23
2018-04-30T05:23:02.890Z,7.80
2018-04-30T05:23:34.119Z,8.07
2018-04-30T05:24:05.331Z,8.20
2018-04-30T05:24:36.585Z,8.73
2018-04-30T05:25:07.802Z,7.68
2018-04-30T05:25:39.020Z,7.28
2018-04-30T05:26:10.233Z,8.30
2018-04-30T05:26:41.461Z,8.20
2018-04-30T05:27:12.705Z,7.80
2018-04-30T05:27:43.909Z,8.40
2018-04-30T05:28:15.092Z,7.90
2018-04-30T05:28:46.293Z,8.95
2018-04-30T05:29:17.490Z,8.60
2018-04-30T05:29:48.681Z,8.23
2018-04-30T05:30:19.892Z,7.25
2018-04-30T05:30:51.149Z,7.78
2018-04-30T05:31:22.348Z,8.27
2018-04-30T05:31:53.624Z,8.13
2018-04-30T05:32:24.845Z,8.10
2018-04-30T05:32:56.054Z,8.02
2018-04-30T05:33:27.278Z,8.35
2018-04-30T05:33:58.525Z,7.82
2018-04-30T05:34:29.748Z,7.68
2018-04-30T05:35:00.960Z,7.47
2018-04-30T05:35:32.189Z,8.20
2018-04-30T05:36:03.489Z,7.32
2018-04-30T05:36:34.709Z,8.05
2018-04-30T05:37:05.921Z,7.47
2018-04-30T05:37:37.136Z,7.10
2018-04-30T05:38:08.348Z,7.55
2018-04-30T05:38:39.545Z,7.30
2018-04-30T05:39:10.756Z,7.75
2018-04-30T05:39:41.981Z,7.90
2018-04-30T05:40:13.195Z,7.75
2018-04-30T05:40:44.432Z,7.25
2018-04-30T05:41:15.651Z,7.20
2018-04-30T05:41:46.867Z,7.20
2018-04-30T05:42:18.074Z,8.02
2018-04-30T05:42:49.276Z,7.90
2018-04-30T05:43:20.494Z,7.57
2018-04-30T05:43:51.705Z,6.97
2018-04-30T05:44:22.917Z,7.45
2018-04-30T05:44:54.117Z,7.12
2018-04-30T05:45:25.362Z,7.85
2018-04-30T05:45:56.578Z,8.07
2018-04-30T05:46:27.860Z,7.75
2018-04-30T05:46:59.095Z,7.68
2018-04-30T05:47:31.072Z,7.55
2018-04-30T05:48:02.392Z,7.53
2018-04-30T05:48:33.565Z,7.07
2018-04-30T05:49:04.768Z,7.68
2018-04-30T05:49:35.976Z,8.25
2018-04-30T05:50:07.210Z,7.55
2018-04-30T05:50:38.425Z,8.27
2018-04-30T05:51:09.649Z,7.32
2018-04-30T05:51:40.869Z,7.53
2018-04-30T05:52:12.093Z,8.15
2018-04-30T05:52:43.300Z,7.50
2018-04-30T05:53:14.691Z,7.30
2018-04-30T05:53:45.907Z,8.27
2018-04-30T05:54:17.143Z,8.38
2018-04-30T05:54:48.404Z,7.93
2018-04-30T05:55:19.709Z,7.62
2018-04-30T05:55:50.901Z,7.70
2018-04-30T05:56:22.115Z,7.85
2018-04-30T05:56:53.333Z,8.00
2018-04-30T05:57:24.546Z,8.60
2018-04-30T05:57:55.823Z,9.35
2018-04-30T05:58:27.051Z,9.18
2018-04-30T05:58:58.276Z,7.72
2018-04-30T05:59:29.491Z,8.75
2018-04-30T06:00:00.773Z,8.18
2018-04-30T06:00:32.077Z,8.25
2018-04-30T06:01:03.310Z,9.23
2018-04-30T06:01:34.531Z,8.90
2018-04-30T06:02:05.735Z,8.48
2018-04-30T06:02:36.958Z,9.10
2018-04-30T06:03:09.329Z,12.85
2018-04-30T06:03:40.532Z,9.60
2018-04-30T06:04:11.762Z,9.05
2018-04-30T06:04:42.976Z,9.18
2018-04-30T06:05:14.172Z,8.80
2018-04-30T06:05:45.398Z,9.80
2018-04-30T06:06:16.671Z,9.77
2018-04-30T06:06:47.944Z,9.20
2018-04-30T06:07:19.161Z,9.18
2018-04-30T06:07:50.410Z,9.48
2018-04-30T06:08:21.630Z,10.88
2018-04-30T06:08:52.836Z,15.02
2018-04-30T06:09:24.046Z,10.75
2018-04-30T06:09:55.255Z,9.73
2018-04-30T06:10:26.558Z,9.23
2018-04-30T06:10:57.779Z,9.73
2018-04-30T06:11:28.991Z,10.15
2018-04-30T06:12:00.240Z,9.82
2018-04-30T06:12:31.467Z,10.77
2018-04-30T06:13:02.693Z,10.25
2018-04-30T06:13:33.923Z,10.27
2018-04-30T06:14:05.141Z,10.55
2018-04-30T06:14:36.345Z,10.32
2018-04-30T06:15:07.681Z,10.38
2018-04-30T06:15:38.853Z,9.23
2018-04-30T06:16:10.086Z,9.05
2018-04-30T06:16:41.285Z,9.88
2018-04-30T06:17:12.495Z,8.90
2018-04-30T06:17:43.714Z,8.13
2018-04-30T06:18:14.945Z,8.68
2018-04-30T06:18:46.165Z,8.07
2018-04-30T06:19:17.373Z,8.07
2018-04-30T06:19:48.588Z,8.30
2018-04-30T06:20:19.847Z,9.50
2018-04-30T06:20:51.070Z,9.75
2018-04-30T06:21:22.277Z,5.55
2018-04-30T06:21:53.481Z,6.37
2018-04-30T06:22:24.761Z,7.45
2018-04-30T06:22:55.979Z,7.12
2018-04-30T06:23:27.204Z,7.05
2018-04-30T06:23:58.424Z,8.70
2018-04-30T06:24:29.692Z,6.60
2018-04-30T06:25:00.905Z,6.72
2018-04-30T06:25:32.167Z,6.43
2018-04-30T06:26:03.403Z,5.78
2018-04-30T06:26:34.684Z,5.93
2018-04-30T06:27:05.870Z,5.70
2018-04-30T06:27:37.089Z,5.65
2018-04-30T06:28:08.305Z,5.00
2018-04-30T06:28:39.567Z,5.07
2018-04-30T06:29:10.788Z,5.22
2018-04-30T06:29:41.995Z,5.07
2018-04-30T06:30:13.226Z,5.28
2018-04-30T06:30:44.493Z,5.15
2018-04-30T06:31:15.718Z,5.90
2018-04-30T06:31:46.931Z,6.07
2018-04-30T06:32:18.143Z,5.40
2018-04-30T06:32:49.364Z,5.37
2018-04-30T06:33:20.572Z,4.60
2018-04-30T06:33:51.805Z,5.50
2018-04-30T06:34:23.073Z,5.10
2018-04-30T06:34:54.328Z,5.40
2018-04-30T06:35:25.596Z,4.95
2018-04-30T06:35:56.860Z,4.55
2018-04-30T06:36:28.097Z,4.80
2018-04-30T06:36:59.339Z,4.70
2018-04-30T06:37:30.616Z,5.93
2018-04-30T06:38:01.803Z,5.10
2018-04-30T06:38:33.008Z,4.50
2018-04-30T06:39:04.209Z,4.72
2018-04-30T06:39:35.452Z,4.95
2018-04-30T06:40:06.667Z,5.25
2018-04-30T06:40:37.877Z,5.72
2018-04-30T06:41:09.081Z,5.35
2018-04-30T06:41:40.293Z,5.55
2018-04-30T06:42:11.543Z,4.90
2018-04-30T06:42:42.799Z,5.40
2018-04-30T06:43:14.041Z,6.00
2018-04-30T06:43:45.271Z,5.50
2018-04-30T06:44:16.505Z,5.47
2018-04-30T06:44:47.716Z,5.10
2018-04-30T06:45:18.944Z,5.00
2018-04-30T06:45:50.198Z,4.60
2018-04-30T06:46:21.418Z,5.43
2018-04-30T06:46:52.626Z,4.87
2018-04-30T06:47:23.854Z,4.30
2018-04-30T06:47:55.103Z,4.22
2018-04-30T06:48:26.701Z,3.83
2018-04-30T06:48:57.951Z,4.87
2018-04-30T06:49:29.438Z,4.68
2018-04-30T06:50:00.664Z,4.45
2018-04-30T06:50:31.886Z,5.12
2018-04-30T06:51:03.115Z,4.95
2018-04-30T06:51:34.362Z,4.00
2018-04-30T06:52:05.587Z,4.00
2018-04-30T06:52:36.789Z,4.10
2018-04-30T06:53:08.072Z,4.62
2018-04-30T06:53:39.342Z,3.92
2018-04-30T06:54:10.565Z,4.15
2018-04-30T06:54:41.774Z,4.30
2018-04-30T06:55:12.989Z,4.47